• Join FlightAware (Why Join?)
  • Login
  • US Flag 
10:19PM EDT


 

Airport Tracker/Info


-or-


 

Live Flight TrackerFlight Track Log ✈ EJA929 ✈ 02-Jun-2013 ✈ KHYR - KMKE

Flight Track Log - Related Links

Times and Time Zones

All times are in EDT time to prevent confusion due to time zone crossing. See the EJA929 flight status page for this flight to view local times or setup timezone preferences in your user account.

Time Position Orientation Groundspeed Altitude Reporting Facility
EDT Latitude Longitude Course Direction KTS MPH feet Rate Location/Type
08:12PM 45.9442 -91.4053 152° Southeast 252 290 7,800  Level Minneapolis Center
08:13PM 45.8700 -91.3536 154° Southeast 295 339 12,100 3,780 Climbing Minneapolis Center
08:14PM 45.8006 -91.3006 152° Southeast 287 330 15,600 3,120 Climbing Minneapolis Center
08:15PM 45.7217 -91.2419 153° Southeast 305 351 18,500 2,460 Climbing Minneapolis Center
08:16PM 45.6147 -91.1672 154° Southeast 345 397 20,800 1,980 Climbing Minneapolis Center
08:17PM 45.6405 -90.9725 155° Southeast  Level Estimated
08:17PM 45.5111 -91.0956 154° Southeast 383 441 22,600  Level Minneapolis Center
08:18PM 45.5634 -90.8789 152° Southeast  Level Estimated
08:19PM 45.3986 -91.0158 154° Southeast 424 488 23,000  Level Minneapolis Center
08:20PM 45.2811 -90.9344 154° Southeast 453 521 23,000  Level Minneapolis Center
08:21PM 45.1608 -90.8506 154° Southeast 473 544 23,000  Level Minneapolis Center
08:22PM 45.0444 -90.7683 153° Southeast 469 540 23,000  Level Minneapolis Center
08:23PM 44.9256 -90.6875 154° Southeast 473 544 23,000  Level Minneapolis Center
08:24PM 44.7967 -90.5983 154° Southeast 471 542 23,000  Level Minneapolis Center
08:25PM 44.6719 -90.5128 154° Southeast 471 542 23,000  Level Minneapolis Center
08:26PM 44.5544 -90.4339 154° Southeast 471 542 23,000  Level Minneapolis Center
08:27PM 44.4367 -90.3539 154° Southeast 470 541 23,000  Level Minneapolis Center
08:28PM 44.3192 -90.2739 154° Southeast 469 540 23,000  Level Minneapolis Center
08:29PM 44.1819 -90.1828 155° Southeast 471 542 23,000  Level Minneapolis Center
08:30PM 44.0667 -90.0992 152° Southeast 467 537 23,000  Level Minneapolis Center
08:31PM 43.9819 -89.9556 129° Southeast 481 554 23,000 -600 Level Minneapolis Center
08:32PM 43.9178 -89.8281 125° Southeast 485 558 21,900 -1,620 Descending Chicago Center
08:33PM 43.8386 -89.6717 125° Southeast 492 566 19,900 -2,100 Descending Chicago Center
08:34PM 43.7494 -89.4956 125° Southeast 482 555 17,600 -2,100 Descending Chicago Center
08:35PM 43.6758 -89.3508 125° Southeast 464 534 15,600 -1,740 Descending Chicago Center
08:36PM 43.6028 -89.2108 126° Southeast 454 522 14,000 -1,320 Descending Chicago Center
08:37PM 43.5336 -89.0761 125° Southeast 435 501 12,900 -1,380 Descending Chicago Center
08:38PM 43.4644 -88.9439 126° Southeast 430 495 11,200 -960 Descending Chicago Center
08:39PM 43.3917 -88.8061 126° Southeast 387 445 11,000 -600 Descending Chicago Center
08:40PM 43.3322 -88.6933 126° Southeast 371 427 10,000 -540 Descending Chicago Center
08:41PM 43.2731 -88.5800 126° Southeast 369 425 10,000 -300 Level Chicago Center
08:42PM 43.2142 -88.4869 131° Southeast 323 372 9,400 -1,200 Descending Chicago Center
08:43PM 43.1281 -88.4347 156° South 291 335 7,600 -1,620 Descending Chicago Center
08:44PM 43.0564 -88.3953 158° South 280 322 6,100 -1,500 Descending Chicago Center
08:45PM 42.9889 -88.3578 158° South 269 310 4,600 -1,500 Descending Chicago Center
08:46PM 42.9561 -88.2772 119° Southeast 262 302 3,000 -960 Descending Chicago Center
08:47PM 42.9378 -88.1883 106° East 250 288 2,700 -180 Descending Chicago Center
08:48PM 42.9178 -88.0903 106° East 239 275 2,700 -120 Level Chicago Center
08:49PM 42.9108 -88.0236 98° East 208 239 2,500 -540 Descending Chicago Center
08:50PM 42.9267 -87.9672 69° East 173 199 1,600 -900 Descending Chicago Center
08:53PM 42.9333 -87.8833 93° East  Level FlightAware Approximate
09:00PM 42.9469 -87.8971 93° East  Level Estimated